createdAt,value
2023-05-09T00:00:16.927Z,975.62
2023-05-09T00:01:16.917Z,975.60
2023-05-09T00:02:16.922Z,975.61
2023-05-09T00:03:16.935Z,975.59
2023-05-09T00:04:16.949Z,975.59
2023-05-09T00:05:16.992Z,975.57
2023-05-09T00:06:16.872Z,975.61
2023-05-09T00:07:16.866Z,975.62
2023-05-09T00:08:16.856Z,975.58
2023-05-09T00:09:16.840Z,975.58
2023-05-09T00:10:16.841Z,975.56
2023-05-09T00:11:16.944Z,975.58
2023-05-09T00:12:16.819Z,975.56
2023-05-09T00:13:16.833Z,975.51
2023-05-09T00:14:16.804Z,975.52
2023-05-09T00:15:16.812Z,975.51
2023-05-09T00:16:16.818Z,975.52
2023-05-09T00:17:16.767Z,975.45
2023-05-09T00:18:16.764Z,975.50
2023-05-09T00:19:16.751Z,975.45
2023-05-09T00:20:16.740Z,975.49
2023-05-09T00:21:16.731Z,975.49
2023-05-09T00:22:16.728Z,975.49
2023-05-09T00:23:16.721Z,975.45
2023-05-09T00:24:16.705Z,975.51
2023-05-09T00:25:17.031Z,975.54
2023-05-09T00:26:16.686Z,975.53
2023-05-09T00:27:16.798Z,975.52
2023-05-09T00:28:16.671Z,975.54
2023-05-09T00:29:16.661Z,975.54
2023-05-09T00:30:16.647Z,975.53
2023-05-09T00:31:16.652Z,975.51
2023-05-09T00:32:16.778Z,975.49
2023-05-09T00:33:16.625Z,975.47
2023-05-09T00:34:16.620Z,975.47
2023-05-09T00:35:16.876Z,975.42
2023-05-09T00:36:16.606Z,975.40
2023-05-09T00:37:16.598Z,975.36
2023-05-09T00:38:16.575Z,975.37
2023-05-09T00:39:16.566Z,975.36
2023-05-09T00:40:16.561Z,975.34
2023-05-09T00:41:16.549Z,975.33
2023-05-09T00:42:16.538Z,975.34
2023-05-09T00:43:16.647Z,975.32
2023-05-09T00:44:16.522Z,975.27
2023-05-09T00:45:16.567Z,975.29
2023-05-09T00:46:16.598Z,975.24
2023-05-09T00:47:16.493Z,975.25
2023-05-09T00:48:16.501Z,975.21
2023-05-09T00:49:16.474Z,975.15
2023-05-09T00:50:16.460Z,975.14
2023-05-09T00:51:16.465Z,975.20
2023-05-09T00:52:16.446Z,975.17
2023-05-09T00:53:16.438Z,975.14
2023-05-09T00:54:16.424Z,975.13
2023-05-09T00:55:16.642Z,975.09
2023-05-09T00:56:16.421Z,975.11
2023-05-09T00:57:16.412Z,975.08
2023-05-09T00:58:16.388Z,975.10
2023-05-09T00:59:17.595Z,975.09
2023-05-09T01:00:16.372Z,975.03
2023-05-09T01:01:16.451Z,975.02
2023-05-09T01:02:16.420Z,975.01
2023-05-09T01:03:16.460Z,975.02
2023-05-09T01:04:16.335Z,975.01
2023-05-09T01:05:16.628Z,975.01
2023-05-09T01:06:16.321Z,974.97
2023-05-09T01:07:16.308Z,974.98
2023-05-09T01:08:16.302Z,974.96
2023-05-09T01:09:16.294Z,974.93
2023-05-09T01:10:16.282Z,974.91
2023-05-09T01:11:16.272Z,974.92
2023-05-09T01:12:16.263Z,974.88
2023-05-09T01:13:16.301Z,974.87
2023-05-09T01:14:16.239Z,974.86
2023-05-09T01:15:16.610Z,974.83
2023-05-09T01:16:16.246Z,974.85
2023-05-09T01:17:16.220Z,974.82
2023-05-09T01:18:16.222Z,974.83
2023-05-09T01:19:16.197Z,974.79
2023-05-09T01:20:16.188Z,974.79
2023-05-09T01:21:16.184Z,974.77
2023-05-09T01:22:16.168Z,974.78
2023-05-09T01:23:16.161Z,974.77
2023-05-09T01:24:16.149Z,974.77
2023-05-09T01:25:16.293Z,974.77
2023-05-09T01:26:16.127Z,974.79
2023-05-09T01:27:16.120Z,974.80
2023-05-09T01:28:16.114Z,974.82
2023-05-09T01:29:16.120Z,974.79
2023-05-09T01:30:16.116Z,974.78
2023-05-09T01:31:16.229Z,974.78
2023-05-09T01:32:16.098Z,974.75
2023-05-09T01:33:16.080Z,974.74
2023-05-09T01:34:16.054Z,974.76
2023-05-09T01:35:16.266Z,974.72
2023-05-09T01:36:16.036Z,974.73
2023-05-09T01:37:16.041Z,974.71
2023-05-09T01:38:16.018Z,974.74
2023-05-09T01:39:16.013Z,974.69
2023-05-09T01:40:15.999Z,974.71
2023-05-09T01:41:15.994Z,974.70
2023-05-09T01:42:15.980Z,974.71
2023-05-09T01:43:15.978Z,974.72
2023-05-09T01:44:16.052Z,974.71
2023-05-09T01:45:16.262Z,974.73
2023-05-09T01:46:15.991Z,974.70
2023-05-09T01:47:16.052Z,974.74
2023-05-09T01:48:15.930Z,974.71
2023-05-09T01:49:15.923Z,974.71
2023-05-09T01:50:15.913Z,974.77
2023-05-09T01:51:15.904Z,974.74
2023-05-09T01:52:15.889Z,974.74
2023-05-09T01:53:15.879Z,974.73
2023-05-09T01:54:15.869Z,974.73
2023-05-09T01:55:16.072Z,974.72
2023-05-09T01:56:15.852Z,974.74
2023-05-09T01:57:15.846Z,974.73
2023-05-09T01:58:15.833Z,974.74
2023-05-09T01:59:15.828Z,974.72
2023-05-09T02:00:15.815Z,974.71
2023-05-09T02:01:16.016Z,974.72
2023-05-09T02:02:15.822Z,974.73
2023-05-09T02:03:15.957Z,974.69
2023-05-09T02:04:15.787Z,974.68
2023-05-09T02:05:16.030Z,974.67
2023-05-09T02:06:15.755Z,974.68
2023-05-09T02:07:15.751Z,974.64
2023-05-09T02:08:15.744Z,974.69
2023-05-09T02:09:15.733Z,974.68
2023-05-09T02:10:15.734Z,974.63
2023-05-09T02:11:15.722Z,974.62
2023-05-09T02:12:15.727Z,974.61
2023-05-09T02:13:15.742Z,974.60
2023-05-09T02:14:15.684Z,974.60
2023-05-09T02:15:15.934Z,974.57
2023-05-09T02:16:15.690Z,974.61
2023-05-09T02:17:15.663Z,974.60
2023-05-09T02:18:15.646Z,974.62
2023-05-09T02:19:15.756Z,974.64
2023-05-09T02:20:15.626Z,974.65
2023-05-09T02:21:15.650Z,974.66
2023-05-09T02:22:15.617Z,974.66
2023-05-09T02:23:15.674Z,974.60
2023-05-09T02:24:15.600Z,974.65
2023-05-09T02:25:15.986Z,974.64
2023-05-09T02:26:15.574Z,974.62
2023-05-09T02:27:15.572Z,974.60
2023-05-09T02:28:15.557Z,974.57
2023-05-09T02:29:15.545Z,974.56
2023-05-09T02:30:15.534Z,974.57
2023-05-09T02:31:15.530Z,974.54
2023-05-09T02:32:15.769Z,974.52
2023-05-09T02:33:15.514Z,974.50
2023-05-09T02:34:15.501Z,974.49
2023-05-09T02:35:15.841Z,974.53
2023-05-09T02:36:15.483Z,974.50
2023-05-09T02:37:15.478Z,974.47
2023-05-09T02:38:15.458Z,974.45
2023-05-09T02:39:15.453Z,974.46
2023-05-09T02:40:15.440Z,974.44
2023-05-09T02:41:15.433Z,974.49
2023-05-09T02:42:15.422Z,974.44
2023-05-09T02:43:15.414Z,974.47
2023-05-09T02:44:15.402Z,974.49
2023-05-09T02:45:15.589Z,974.51
2023-05-09T02:46:15.433Z,974.52
2023-05-09T02:47:15.382Z,974.51
2023-05-09T02:48:15.368Z,974.53
2023-05-09T02:49:30.975Z,974.51
2023-05-09T02:50:15.348Z,974.51
2023-05-09T02:51:15.459Z,974.51
2023-05-09T02:52:15.332Z,974.49
2023-05-09T02:53:15.323Z,974.50
2023-05-09T02:54:15.311Z,974.49
2023-05-09T02:55:15.549Z,974.51
2023-05-09T02:56:15.292Z,974.55
2023-05-09T02:57:15.291Z,974.55
2023-05-09T02:58:15.367Z,974.59
2023-05-09T02:59:15.266Z,974.53
2023-05-09T03:00:15.256Z,974.52
2023-05-09T03:01:15.256Z,974.53
2023-05-09T03:02:15.236Z,974.58
2023-05-09T03:03:15.312Z,974.50
2023-05-09T03:04:15.220Z,974.53
2023-05-09T03:05:15.505Z,974.54
2023-05-09T03:06:15.197Z,974.53
2023-05-09T03:07:15.305Z,974.54
2023-05-09T03:08:15.177Z,974.51
2023-05-09T03:09:15.172Z,974.55
2023-05-09T03:10:15.160Z,974.53
2023-05-09T03:11:15.154Z,974.53
2023-05-09T03:12:15.141Z,974.51
2023-05-09T03:13:15.195Z,974.45
2023-05-09T03:14:15.132Z,974.44
2023-05-09T03:15:15.276Z,974.41
2023-05-09T03:16:15.130Z,974.42
2023-05-09T03:17:15.108Z,974.38
2023-05-09T03:18:15.084Z,974.40
2023-05-09T03:19:15.080Z,974.36
2023-05-09T03:20:15.066Z,974.39
2023-05-09T03:21:15.065Z,974.39
2023-05-09T03:22:15.047Z,974.38
2023-05-09T03:23:15.169Z,974.41
2023-05-09T03:24:15.029Z,974.37
2023-05-09T03:25:15.249Z,974.38
2023-05-09T03:26:15.013Z,974.38
2023-05-09T03:27:15.004Z,974.40
2023-05-09T03:28:14.992Z,974.37
2023-05-09T03:29:14.985Z,974.35
2023-05-09T03:30:15.039Z,974.33
2023-05-09T03:31:15.013Z,974.30
2023-05-09T03:32:15.348Z,974.29
2023-05-09T03:33:14.946Z,974.31
2023-05-09T03:34:15.146Z,974.33
2023-05-09T03:35:15.184Z,974.30
2023-05-09T03:36:14.915Z,974.34
2023-05-09T03:37:14.917Z,974.37
2023-05-09T03:38:14.897Z,974.36
2023-05-09T03:39:15.025Z,974.38
2023-05-09T03:40:14.880Z,974.37
2023-05-09T03:41:14.874Z,974.38
2023-05-09T03:42:14.859Z,974.39
2023-05-09T03:43:14.862Z,974.36
2023-05-09T03:44:14.850Z,974.35
2023-05-09T03:45:15.055Z,974.38
2023-05-09T03:46:14.860Z,974.35
2023-05-09T03:47:14.813Z,974.37
2023-05-09T03:48:14.796Z,974.38
2023-05-09T03:49:14.797Z,974.35
2023-05-09T03:50:14.783Z,974.37
2023-05-09T03:51:14.777Z,974.41
2023-05-09T03:52:14.763Z,974.39
2023-05-09T03:53:14.755Z,974.39
2023-05-09T03:54:14.748Z,974.41
2023-05-09T03:55:15.030Z,974.40
2023-05-09T03:56:14.733Z,974.40
2023-05-09T03:57:14.718Z,974.38
2023-05-09T03:58:14.715Z,974.37
2023-05-09T03:59:14.706Z,974.41
2023-05-09T04:00:14.689Z,974.40
2023-05-09T04:01:14.678Z,974.34
2023-05-09T04:02:14.710Z,974.36
2023-05-09T04:03:14.758Z,974.35
2023-05-09T04:04:14.668Z,974.34
2023-05-09T04:05:14.817Z,974.35
2023-05-09T04:06:14.631Z,974.33
2023-05-09T04:07:14.626Z,974.31
2023-05-09T04:08:14.618Z,974.30
2023-05-09T04:09:14.605Z,974.33
2023-05-09T04:10:14.595Z,974.34
2023-05-09T04:11:14.713Z,974.34
2023-05-09T04:12:14.574Z,974.34
2023-05-09T04:13:14.605Z,974.34
2023-05-09T04:14:14.554Z,974.30
2023-05-09T04:15:14.745Z,974.34
2023-05-09T04:16:14.649Z,974.35
2023-05-09T04:17:14.531Z,974.34
2023-05-09T04:18:14.519Z,974.36
2023-05-09T04:19:14.516Z,974.34
2023-05-09T04:20:14.502Z,974.34
2023-05-09T04:21:14.502Z,974.39
2023-05-09T04:22:14.485Z,974.36
2023-05-09T04:23:14.472Z,974.40
2023-05-09T04:24:14.469Z,974.41
2023-05-09T04:25:14.778Z,974.35
2023-05-09T04:26:14.442Z,974.37
2023-05-09T04:27:14.551Z,974.35
2023-05-09T04:28:14.424Z,974.35
2023-05-09T04:29:14.415Z,974.39
2023-05-09T04:30:14.402Z,974.37
2023-05-09T04:31:14.465Z,974.36
2023-05-09T04:32:14.396Z,974.38
2023-05-09T04:33:14.386Z,974.37
2023-05-09T04:34:14.368Z,974.38
2023-05-09T04:35:14.938Z,974.34
2023-05-09T04:36:14.345Z,974.33
2023-05-09T04:37:14.339Z,974.33
2023-05-09T04:38:14.335Z,974.31
2023-05-09T04:39:14.329Z,974.29
2023-05-09T04:40:14.303Z,974.27
2023-05-09T04:41:14.321Z,974.25
2023-05-09T04:42:14.298Z,974.25
2023-05-09T04:43:14.397Z,974.26
2023-05-09T04:44:14.275Z,974.29
2023-05-09T04:45:14.478Z,974.30
2023-05-09T04:46:14.306Z,974.28
2023-05-09T04:47:14.244Z,974.33
2023-05-09T04:48:14.236Z,974.29
2023-05-09T04:49:14.224Z,974.34
2023-05-09T04:50:14.223Z,974.35
2023-05-09T04:51:14.204Z,974.32
2023-05-09T04:52:14.200Z,974.34
2023-05-09T04:53:14.182Z,974.31
2023-05-09T04:54:14.221Z,974.37
2023-05-09T04:55:14.500Z,974.30
2023-05-09T04:56:14.161Z,974.30
2023-05-09T04:57:18.397Z,974.30
2023-05-09T04:58:14.152Z,974.31
2023-05-09T04:59:14.258Z,974.29
2023-05-09T05:00:14.128Z,974.30
2023-05-09T05:01:14.133Z,974.23
2023-05-09T05:02:14.110Z,974.23
2023-05-09T05:03:14.090Z,974.22
2023-05-09T05:04:14.147Z,974.24
2023-05-09T05:05:14.076Z,974.28
2023-05-09T05:06:14.071Z,974.25
2023-05-09T05:07:14.062Z,974.26
2023-05-09T05:08:14.092Z,974.28
2023-05-09T05:09:14.033Z,974.28
2023-05-09T05:10:14.031Z,974.23
2023-05-09T05:11:14.020Z,974.25
2023-05-09T05:12:14.008Z,974.22
2023-05-09T05:13:14.025Z,974.17
2023-05-09T05:14:13.987Z,974.21
2023-05-09T05:15:14.260Z,974.17
2023-05-09T05:16:14.033Z,974.14
2023-05-09T05:17:13.956Z,974.15
2023-05-09T05:18:13.961Z,974.10
2023-05-09T05:19:13.937Z,974.12
2023-05-09T05:20:13.931Z,974.12
2023-05-09T05:21:13.917Z,974.11
2023-05-09T05:22:13.916Z,974.13
2023-05-09T05:23:13.898Z,974.12
2023-05-09T05:24:13.908Z,974.18
2023-05-09T05:25:14.045Z,974.17
2023-05-09T05:26:13.870Z,974.17
2023-05-09T05:27:13.863Z,974.16
2023-05-09T05:28:13.859Z,974.18
2023-05-09T05:29:13.843Z,974.20
2023-05-09T05:30:13.841Z,974.18
2023-05-09T05:31:14.006Z,974.19
2023-05-09T05:32:13.819Z,974.20
2023-05-09T05:33:13.804Z,974.22
2023-05-09T05:34:13.800Z,974.24
2023-05-09T05:35:14.100Z,974.23
2023-05-09T05:36:13.781Z,974.23
2023-05-09T05:37:13.767Z,974.25
2023-05-09T05:38:13.760Z,974.25
2023-05-09T05:39:13.746Z,974.25
2023-05-09T05:40:13.740Z,974.27
2023-05-09T05:41:13.726Z,974.25
2023-05-09T05:42:13.726Z,974.25
2023-05-09T05:43:13.709Z,974.23
2023-05-09T05:44:13.701Z,974.21
2023-05-09T05:45:13.898Z,974.26
2023-05-09T05:46:13.733Z,974.20
2023-05-09T05:47:13.787Z,974.21
2023-05-09T05:48:13.662Z,974.18
2023-05-09T05:49:13.651Z,974.14
2023-05-09T05:50:13.647Z,974.13
2023-05-09T05:51:13.633Z,974.17
2023-05-09T05:52:13.630Z,974.11
2023-05-09T05:53:13.612Z,974.12
2023-05-09T05:54:13.606Z,974.09
2023-05-09T05:55:13.939Z,974.11
2023-05-09T05:56:13.589Z,974.08
2023-05-09T05:57:13.577Z,974.06
2023-05-09T05:58:13.575Z,974.07
2023-05-09T05:59:13.746Z,974.08
2023-05-09T06:00:13.550Z,974.07
2023-05-09T06:01:13.546Z,974.06
2023-05-09T06:02:13.553Z,974.08
2023-05-09T06:03:13.723Z,974.07
2023-05-09T06:04:13.638Z,974.06
2023-05-09T06:05:13.753Z,974.00
2023-05-09T06:06:13.502Z,974.01
2023-05-09T06:07:13.483Z,974.00
2023-05-09T06:08:13.480Z,974.05
2023-05-09T06:09:13.470Z,974.01
2023-05-09T06:10:13.461Z,974.02
2023-05-09T06:11:13.649Z,974.01
2023-05-09T06:12:13.446Z,974.02
2023-05-09T06:13:13.464Z,973.96
2023-05-09T06:14:13.427Z,974.01
2023-05-09T06:15:13.639Z,974.02
2023-05-09T06:16:19.496Z,974.00
2023-05-09T06:17:13.490Z,974.00
2023-05-09T06:18:13.401Z,974.01
2023-05-09T06:19:13.491Z,974.02
2023-05-09T06:20:13.366Z,973.94
2023-05-09T06:21:13.361Z,973.93
2023-05-09T06:22:13.366Z,973.90
2023-05-09T06:23:13.339Z,973.89
2023-05-09T06:24:23.337Z,973.92
2023-05-09T06:25:13.507Z,973.91
2023-05-09T06:26:13.314Z,973.93
2023-05-09T06:27:13.303Z,973.94
2023-05-09T06:28:13.298Z,973.92
2023-05-09T06:29:13.291Z,973.94
2023-05-09T06:30:24.770Z,973.86
2023-05-09T06:31:13.284Z,973.90
2023-05-09T06:32:13.279Z,973.92
2023-05-09T06:33:13.251Z,973.89
2023-05-09T06:34:13.248Z,973.85
2023-05-09T06:35:13.582Z,973.85
2023-05-09T06:36:13.240Z,973.85
2023-05-09T06:37:13.221Z,973.86
2023-05-09T06:38:13.218Z,973.84
2023-05-09T06:39:13.201Z,973.84
2023-05-09T06:40:13.195Z,973.86
2023-05-09T06:41:13.185Z,973.81
2023-05-09T06:42:13.178Z,973.77
2023-05-09T06:43:13.185Z,973.77
2023-05-09T06:44:13.159Z,973.72
2023-05-09T06:45:13.457Z,973.72
2023-05-09T06:46:13.222Z,973.70
2023-05-09T06:47:13.134Z,973.68
2023-05-09T06:48:13.126Z,973.67
2023-05-09T06:49:13.118Z,973.64
2023-05-09T06:50:13.113Z,973.66
2023-05-09T06:51:13.249Z,973.58
2023-05-09T06:52:13.092Z,973.58
2023-05-09T06:53:13.088Z,973.57
2023-05-09T06:54:13.077Z,973.57
2023-05-09T06:55:13.263Z,973.60
2023-05-09T06:56:13.071Z,973.57
2023-05-09T06:57:13.047Z,973.57
2023-05-09T06:58:13.042Z,973.60
2023-05-09T06:59:13.025Z,973.62
2023-05-09T07:00:13.037Z,973.59
2023-05-09T07:01:13.030Z,973.59
2023-05-09T07:02:13.037Z,973.59
2023-05-09T07:03:13.002Z,973.62
2023-05-09T07:04:13.003Z,973.59
2023-05-09T07:05:13.258Z,973.53
2023-05-09T07:06:12.978Z,973.55
2023-05-09T07:07:13.102Z,973.54
2023-05-09T07:08:12.953Z,973.58
2023-05-09T07:09:12.944Z,973.54
2023-05-09T07:10:13.303Z,973.54
2023-05-09T07:11:12.943Z,973.56
2023-05-09T07:12:12.921Z,973.55
2023-05-09T07:13:12.935Z,973.56
2023-05-09T07:14:12.905Z,973.49
2023-05-09T07:15:13.001Z,973.48
2023-05-09T07:16:12.943Z,973.43
2023-05-09T07:17:23.063Z,973.42
2023-05-09T07:18:12.899Z,973.46
2023-05-09T07:19:12.864Z,973.39
2023-05-09T07:20:12.857Z,973.38
2023-05-09T07:21:12.842Z,973.38
2023-05-09T07:22:12.859Z,973.37
2023-05-09T07:23:12.948Z,973.36
2023-05-09T07:24:12.823Z,973.32
2023-05-09T07:25:12.971Z,973.29
2023-05-09T07:26:12.811Z,973.31
2023-05-09T07:27:12.795Z,973.27
2023-05-09T07:28:12.790Z,973.29
2023-05-09T07:29:12.782Z,973.32
2023-05-09T07:30:12.906Z,973.32
2023-05-09T07:31:12.863Z,973.31
2023-05-09T07:32:12.826Z,973.29
2023-05-09T07:33:12.759Z,973.27
2023-05-09T07:34:12.744Z,973.26
2023-05-09T07:35:12.979Z,973.25
2023-05-09T07:36:12.728Z,973.23
2023-05-09T07:37:13.757Z,973.17
2023-05-09T07:38:12.712Z,973.19
2023-05-09T07:39:12.821Z,973.14
2023-05-09T07:40:12.820Z,973.11
2023-05-09T07:41:12.686Z,973.11
2023-05-09T07:42:12.691Z,973.08
2023-05-09T07:43:12.673Z,973.07
2023-05-09T07:44:12.668Z,973.09
2023-05-09T07:45:12.831Z,973.07
2023-05-09T07:46:12.709Z,973.06
2023-05-09T07:47:12.629Z,973.07
2023-05-09T07:48:12.642Z,973.03
2023-05-09T07:49:12.617Z,973.04
2023-05-09T07:50:12.612Z,973.03
2023-05-09T07:51:12.602Z,973.04
2023-05-09T07:52:12.595Z,973.04
2023-05-09T07:53:12.587Z,973.01
2023-05-09T07:54:12.585Z,973.05
2023-05-09T07:55:12.747Z,973.02
2023-05-09T07:56:12.566Z,972.98
2023-05-09T07:57:12.557Z,973.00
2023-05-09T07:58:12.550Z,973.00
2023-05-09T07:59:12.544Z,972.95
2023-05-09T08:00:12.531Z,972.94
2023-05-09T08:01:12.524Z,972.90
2023-05-09T08:02:12.572Z,972.90
2023-05-09T08:03:12.582Z,972.85
2023-05-09T08:04:12.666Z,972.84
2023-05-09T08:05:12.687Z,972.81
2023-05-09T08:06:12.497Z,972.78
2023-05-09T08:07:12.501Z,972.76
2023-05-09T08:08:12.483Z,972.72
2023-05-09T08:09:12.468Z,972.75
2023-05-09T08:10:12.464Z,972.74
2023-05-09T08:11:12.580Z,972.70
2023-05-09T08:12:12.448Z,972.67
2023-05-09T08:13:12.503Z,972.70
2023-05-09T08:14:13.202Z,972.68
2023-05-09T08:15:12.707Z,972.69
2023-05-09T08:16:12.470Z,972.64
2023-05-09T08:17:12.413Z,972.66
2023-05-09T08:18:12.421Z,972.58
2023-05-09T08:19:12.407Z,972.58
2023-05-09T08:20:12.398Z,972.55
2023-05-09T08:21:12.392Z,972.50
2023-05-09T08:22:12.381Z,972.49
2023-05-09T08:23:12.380Z,972.51
2023-05-09T08:24:12.367Z,972.51
2023-05-09T08:25:12.447Z,972.48
2023-05-09T08:26:12.352Z,972.47
2023-05-09T08:27:12.549Z,972.45
2023-05-09T08:28:12.346Z,972.43
2023-05-09T08:29:12.335Z,972.43
2023-05-09T08:30:12.336Z,972.42
2023-05-09T08:31:12.331Z,972.39
2023-05-09T08:32:12.325Z,972.37
2023-05-09T08:33:12.403Z,972.35
2023-05-09T08:34:12.318Z,972.35
2023-05-09T08:35:12.541Z,972.31
2023-05-09T08:36:12.294Z,972.35
2023-05-09T08:37:14.989Z,972.32
2023-05-09T08:38:12.281Z,972.31
2023-05-09T08:39:12.272Z,972.32
2023-05-09T08:40:12.296Z,972.29
2023-05-09T08:41:12.263Z,972.31
2023-05-09T08:42:12.259Z,972.28
2023-05-09T08:43:12.385Z,972.25
2023-05-09T08:44:12.259Z,972.23
2023-05-09T08:45:12.244Z,972.20
2023-05-09T08:46:12.272Z,972.20
2023-05-09T08:47:12.228Z,972.18
2023-05-09T08:48:12.233Z,972.14
2023-05-09T08:49:12.215Z,972.14
2023-05-09T08:50:12.414Z,972.15
2023-05-09T08:51:12.207Z,972.15
2023-05-09T08:52:12.206Z,972.18
2023-05-09T08:53:12.204Z,972.16
2023-05-09T08:54:12.197Z,972.15
2023-05-09T08:55:12.194Z,972.10
2023-05-09T08:56:12.189Z,972.07
2023-05-09T08:57:12.175Z,972.02
2023-05-09T08:58:12.177Z,972.00
2023-05-09T08:59:12.283Z,971.96
2023-05-09T09:00:12.289Z,971.96
2023-05-09T09:01:12.193Z,971.96
2023-05-09T09:02:12.173Z,971.98
2023-05-09T09:03:12.175Z,971.98
2023-05-09T09:04:12.152Z,972.00
2023-05-09T09:05:23.776Z,971.98
2023-05-09T09:06:12.142Z,972.00
2023-05-09T09:07:12.129Z,972.02
2023-05-09T09:08:12.121Z,971.92
2023-05-09T09:09:12.140Z,971.94
2023-05-09T09:10:12.127Z,971.92
2023-05-09T09:11:12.113Z,971.96
2023-05-09T09:12:12.102Z,971.85
2023-05-09T09:13:12.141Z,971.84
2023-05-09T09:14:12.094Z,971.81
2023-05-09T09:15:12.297Z,971.76
2023-05-09T09:16:12.095Z,971.81
2023-05-09T09:17:12.094Z,971.77
2023-05-09T09:18:12.121Z,971.78
2023-05-09T09:19:12.071Z,971.74
2023-05-09T09:20:12.174Z,971.69
2023-05-09T09:21:12.068Z,971.67
2023-05-09T09:22:12.054Z,971.63
2023-05-09T09:23:12.051Z,971.69
2023-05-09T09:24:12.047Z,971.67
2023-05-09T09:25:12.041Z,971.66
2023-05-09T09:26:12.038Z,971.64
2023-05-09T09:27:12.031Z,971.63
2023-05-09T09:28:12.029Z,971.58
2023-05-09T09:29:12.020Z,971.61
2023-05-09T09:30:12.051Z,971.58
2023-05-09T09:31:12.139Z,971.58
2023-05-09T09:32:12.134Z,971.56
2023-05-09T09:33:12.072Z,971.54
2023-05-09T09:34:11.996Z,971.50
2023-05-09T09:35:12.007Z,971.49
2023-05-09T09:36:11.981Z,971.47
2023-05-09T09:37:11.983Z,971.47
2023-05-09T09:38:11.985Z,971.43
2023-05-09T09:39:11.995Z,971.43
2023-05-09T09:40:12.131Z,971.45
2023-05-09T09:41:11.964Z,971.43
2023-05-09T09:42:11.956Z,971.42
2023-05-09T09:43:11.960Z,971.44
2023-05-09T09:44:11.951Z,971.43
2023-05-09T09:45:11.960Z,971.42
2023-05-09T09:46:12.026Z,971.46
2023-05-09T09:47:12.058Z,971.39
2023-05-09T09:48:11.956Z,971.41
2023-05-09T09:49:11.938Z,971.38
2023-05-09T09:50:12.052Z,971.36
2023-05-09T09:51:11.960Z,971.35
2023-05-09T09:52:11.924Z,971.32
2023-05-09T09:53:11.946Z,971.27
2023-05-09T09:54:11.927Z,971.32
2023-05-09T09:55:11.917Z,971.27
2023-05-09T09:56:11.902Z,971.22
2023-05-09T09:57:11.900Z,971.20
2023-05-09T09:58:11.893Z,971.20
2023-05-09T09:59:11.893Z,971.20
2023-05-09T10:00:11.961Z,971.14
2023-05-09T10:01:11.956Z,971.16
2023-05-09T10:02:11.887Z,971.15
2023-05-09T10:03:12.105Z,971.11
2023-05-09T10:04:11.894Z,971.14
2023-05-09T10:05:11.871Z,971.10
2023-05-09T10:06:11.859Z,971.04
2023-05-09T10:07:14.888Z,971.04
2023-05-09T10:08:11.852Z,970.94
2023-05-09T10:09:11.858Z,970.97
2023-05-09T10:10:11.955Z,970.95
2023-05-09T10:11:11.848Z,970.90
2023-05-09T10:12:11.844Z,970.93
2023-05-09T10:13:11.922Z,970.89
2023-05-09T10:14:11.828Z,970.86
2023-05-09T10:15:11.832Z,970.83
2023-05-09T10:16:11.940Z,970.83
2023-05-09T10:17:11.906Z,970.78
2023-05-09T10:18:11.947Z,970.88
2023-05-09T10:19:11.977Z,970.81
2023-05-09T10:20:11.901Z,970.78
2023-05-09T10:21:11.803Z,970.73
2023-05-09T10:22:11.799Z,970.75
2023-05-09T10:23:11.802Z,970.74
2023-05-09T10:24:11.790Z,970.72
2023-05-09T10:25:11.789Z,970.76
2023-05-09T10:26:11.780Z,970.75
2023-05-09T10:27:11.780Z,970.67
2023-05-09T10:28:11.784Z,970.66
2023-05-09T10:29:11.784Z,970.65
2023-05-09T10:30:11.765Z,970.67
2023-05-09T10:31:11.806Z,970.65
2023-05-09T10:32:11.757Z,970.54
2023-05-09T10:33:11.773Z,970.52
2023-05-09T10:34:11.749Z,970.52
2023-05-09T10:35:11.937Z,970.46
2023-05-09T10:36:11.741Z,970.55
2023-05-09T10:37:11.736Z,970.53
2023-05-09T10:38:11.737Z,970.48
2023-05-09T10:39:11.732Z,970.46
2023-05-09T10:40:11.732Z,970.45
2023-05-09T10:41:11.725Z,970.47
2023-05-09T10:42:11.714Z,970.48
2023-05-09T10:43:11.715Z,970.41
2023-05-09T10:44:11.712Z,970.44
2023-05-09T10:45:11.706Z,970.42
2023-05-09T10:46:11.725Z,970.36
2023-05-09T10:47:11.702Z,970.32
2023-05-09T10:48:11.701Z,970.33
2023-05-09T10:49:11.698Z,970.34
2023-05-09T10:50:11.689Z,970.29
2023-05-09T10:51:11.810Z,970.23
2023-05-09T10:52:11.688Z,970.22
2023-05-09T10:53:11.677Z,970.18
2023-05-09T10:54:11.674Z,970.17
2023-05-09T10:55:11.694Z,970.17
2023-05-09T10:56:11.666Z,970.16
2023-05-09T10:57:11.670Z,970.09
2023-05-09T10:58:11.673Z,970.09
2023-05-09T10:59:11.659Z,970.10
2023-05-09T11:00:11.655Z,970.03
2023-05-09T11:01:11.665Z,970.05
2023-05-09T11:02:11.647Z,970.02
2023-05-09T11:03:11.701Z,969.99
2023-05-09T11:04:11.700Z,970.00
2023-05-09T11:05:11.751Z,969.95
2023-05-09T11:06:11.639Z,969.92
2023-05-09T11:07:11.964Z,969.91
2023-05-09T11:08:11.633Z,969.89
2023-05-09T11:09:11.636Z,969.86
2023-05-09T11:10:11.658Z,969.84
2023-05-09T11:11:11.632Z,969.85
2023-05-09T11:12:11.629Z,969.81
2023-05-09T11:13:11.657Z,969.78
2023-05-09T11:14:11.624Z,969.77
2023-05-09T11:15:11.628Z,969.75
2023-05-09T11:16:11.743Z,969.71
2023-05-09T11:17:11.616Z,969.73
2023-05-09T11:18:11.671Z,969.71
2023-05-09T11:19:11.610Z,969.69
2023-05-09T11:20:11.611Z,969.64
2023-05-09T11:21:11.604Z,969.63
2023-05-09T11:22:11.606Z,969.61
2023-05-09T11:23:11.754Z,969.59
2023-05-09T11:24:11.596Z,969.63
2023-05-09T11:25:11.613Z,969.59
2023-05-09T11:26:11.591Z,969.59
2023-05-09T11:27:11.595Z,969.60
2023-05-09T11:28:11.590Z,969.56
2023-05-09T11:29:11.599Z,969.57
2023-05-09T11:30:11.585Z,969.53
2023-05-09T11:31:11.595Z,969.51
2023-05-09T11:32:11.719Z,969.53
2023-05-09T11:33:11.647Z,969.45
2023-05-09T11:34:11.582Z,969.47
2023-05-09T11:35:11.645Z,969.42
2023-05-09T11:36:11.590Z,969.43
2023-05-09T11:37:11.568Z,969.42
2023-05-09T11:38:11.564Z,969.41
2023-05-09T11:39:11.680Z,969.35
2023-05-09T11:40:11.556Z,969.40
2023-05-09T11:41:11.564Z,969.32
2023-05-09T11:42:11.550Z,969.31
2023-05-09T11:43:11.550Z,969.31
2023-05-09T11:44:11.547Z,969.22
2023-05-09T11:45:11.646Z,969.23
2023-05-09T11:46:11.596Z,969.22
2023-05-09T11:47:11.540Z,969.22
2023-05-09T11:48:11.617Z,969.18
2023-05-09T11:49:12.365Z,969.16
2023-05-09T11:50:11.536Z,969.16
2023-05-09T11:51:11.535Z,969.15
2023-05-09T11:52:11.528Z,969.12
2023-05-09T11:53:11.565Z,969.12
2023-05-09T11:54:11.517Z,969.12
2023-05-09T11:55:12.822Z,969.10
2023-05-09T11:56:11.522Z,969.10
2023-05-09T11:57:11.520Z,969.07
2023-05-09T11:58:11.505Z,969.07
2023-05-09T11:59:11.505Z,969.11
2023-05-09T12:00:11.501Z,969.05
2023-05-09T12:01:12.381Z,969.08
2023-05-09T12:02:11.554Z,969.05
2023-05-09T12:03:11.562Z,969.06
2023-05-09T12:04:11.523Z,969.02
2023-05-09T12:05:11.486Z,968.98
2023-05-09T12:06:11.481Z,968.98
2023-05-09T12:07:11.479Z,968.95
2023-05-09T12:08:11.476Z,968.92
2023-05-09T12:09:11.482Z,968.96
2023-05-09T12:10:11.476Z,968.91
2023-05-09T12:11:11.588Z,968.92
2023-05-09T12:12:11.483Z,968.89
2023-05-09T12:13:11.487Z,968.87
2023-05-09T12:14:11.670Z,968.86
2023-05-09T12:15:11.459Z,968.86
2023-05-09T12:16:11.493Z,968.86
2023-05-09T12:17:11.479Z,968.87
2023-05-09T12:18:11.480Z,968.81
2023-05-09T12:19:11.448Z,968.81
2023-05-09T12:20:11.646Z,968.84
2023-05-09T12:21:11.444Z,968.81
2023-05-09T12:22:11.441Z,968.80
2023-05-09T12:23:11.436Z,968.79
2023-05-09T12:24:11.427Z,968.82
2023-05-09T12:25:11.439Z,968.75
2023-05-09T12:26:11.427Z,968.75
2023-05-09T12:27:11.633Z,968.80
2023-05-09T12:28:11.426Z,968.75